createdAt,value
2022-09-17T00:01:08.818Z,6.53
2022-09-17T00:03:36.376Z,8.99
2022-09-17T00:06:09.153Z,9.07
2022-09-17T00:08:38.159Z,8.92
2022-09-17T00:11:14.861Z,9.10
2022-09-17T00:13:45.431Z,9.00
2022-09-17T00:16:13.626Z,8.24
2022-09-17T00:18:42.108Z,8.49
2022-09-17T00:21:17.766Z,8.43
2022-09-17T00:23:44.822Z,7.45
2022-09-17T00:26:12.755Z,7.97
2022-09-17T00:28:39.948Z,8.03
2022-09-17T00:31:09.244Z,7.39
2022-09-17T00:33:37.056Z,8.86
2022-09-17T00:36:05.510Z,8.89
2022-09-17T00:38:32.816Z,7.12
2022-09-17T00:41:00.274Z,6.26
2022-09-17T00:43:39.401Z,8.81
2022-09-17T00:46:24.059Z,8.82
2022-09-17T00:48:54.153Z,8.84
2022-09-17T00:51:28.382Z,7.30
2022-09-17T00:53:56.941Z,8.43
2022-09-17T00:56:28.198Z,7.93
2022-09-17T00:58:55.976Z,7.47
2022-09-17T01:01:23.102Z,7.46
2022-09-17T01:03:50.447Z,5.91
2022-09-17T01:06:29.371Z,8.71
2022-09-17T01:09:05.346Z,8.66
2022-09-17T01:11:55.476Z,8.71
2022-09-17T01:14:37.348Z,6.17
2022-09-17T01:17:30.677Z,8.66
2022-09-17T01:20:11.145Z,8.76
2022-09-17T01:23:10.527Z,7.82
2022-09-17T01:25:57.866Z,8.62
2022-09-17T01:28:46.078Z,8.68
2022-09-17T01:31:25.765Z,6.79
2022-09-17T01:34:07.640Z,8.66
2022-09-17T01:36:50.600Z,6.65
2022-09-17T01:39:38.942Z,8.62
2022-09-17T01:42:36.215Z,8.62
2022-09-17T01:45:10.680Z,7.72
2022-09-17T01:47:42.814Z,8.61
2022-09-17T01:50:21.449Z,8.56
2022-09-17T01:52:52.719Z,5.73
2022-09-17T01:55:23.024Z,7.60
2022-09-17T01:58:08.583Z,2.00
2022-09-17T02:00:37.862Z,8.11
2022-09-17T02:03:14.552Z,7.61
2022-09-17T02:05:57.058Z,8.41
2022-09-17T02:08:26.715Z,8.37
2022-09-17T02:11:09.758Z,7.59
2022-09-17T02:13:59.143Z,8.00
2022-09-17T02:16:27.365Z,5.95
2022-09-17T02:19:00.340Z,8.39
2022-09-17T02:21:44.308Z,8.34
2022-09-17T02:24:38.198Z,8.42
2022-09-17T02:27:12.454Z,8.35
2022-09-17T02:29:44.459Z,7.12
2022-09-17T02:32:13.946Z,8.28
2022-09-17T02:34:41.473Z,8.33
2022-09-17T02:37:09.309Z,2.66
2022-09-17T02:39:36.418Z,7.92
2022-09-17T02:42:45.164Z,8.27
2022-09-17T02:45:30.873Z,8.25
2022-09-17T02:48:23.291Z,7.07
2022-09-17T02:51:01.284Z,7.34
2022-09-17T02:54:13.448Z,8.14
2022-09-17T02:56:58.054Z,6.93
2022-09-17T02:59:42.266Z,8.08
2022-09-17T03:02:31.145Z,7.64
2022-09-17T03:04:59.295Z,8.09
2022-09-17T03:07:29.445Z,6.49
2022-09-17T03:09:56.554Z,7.34
2022-09-17T03:12:24.756Z,7.06
2022-09-17T03:14:52.058Z,5.97
2022-09-17T03:17:19.112Z,6.59
2022-09-17T03:19:46.052Z,4.96
2022-09-17T03:22:13.093Z,7.06
2022-09-17T03:24:40.032Z,6.18
2022-09-17T03:27:06.987Z,6.85
2022-09-17T03:29:34.335Z,7.96
2022-09-17T03:32:01.553Z,7.92
2022-09-17T03:34:28.654Z,7.98
2022-09-17T03:36:55.714Z,6.36
2022-09-17T03:39:22.669Z,0.98
2022-09-17T03:41:49.784Z,6.24
2022-09-17T03:44:18.931Z,7.44
2022-09-17T03:46:46.351Z,6.06
2022-09-17T03:49:13.342Z,5.46
2022-09-17T03:51:40.289Z,7.83
2022-09-17T03:54:07.621Z,6.40
2022-09-17T03:56:35.037Z,7.45
2022-09-17T03:59:02.491Z,7.86
2022-09-17T04:01:30.248Z,7.75
2022-09-17T04:03:58.114Z,7.41
2022-09-17T04:06:25.284Z,6.39
2022-09-17T04:08:53.781Z,4.96
2022-09-17T04:11:20.750Z,4.96
2022-09-17T04:13:48.010Z,7.33
2022-09-17T04:16:15.361Z,7.58
2022-09-17T04:18:42.346Z,7.36
2022-09-17T04:21:09.365Z,7.76
2022-09-17T04:23:36.281Z,5.31
2022-09-17T04:26:03.378Z,7.42
2022-09-17T04:28:30.374Z,6.76
2022-09-17T04:30:58.054Z,6.95
2022-09-17T04:33:25.159Z,5.93
2022-09-17T04:35:54.587Z,2.44
2022-09-17T04:38:22.515Z,2.76
2022-09-17T04:40:50.407Z,4.76
2022-09-17T04:43:17.814Z,3.46
2022-09-17T04:45:48.556Z,5.18
2022-09-17T04:48:15.677Z,6.89
2022-09-17T04:50:42.776Z,6.79
2022-09-17T04:53:09.986Z,6.39
2022-09-17T04:55:36.882Z,6.15
2022-09-17T04:58:04.960Z,5.36
2022-09-17T05:00:31.908Z,8.06
2022-09-17T05:02:58.856Z,7.63
2022-09-17T05:05:25.987Z,6.07
2022-09-17T05:07:53.355Z,6.77
2022-09-17T05:10:21.919Z,8.11
2022-09-17T05:12:50.406Z,6.57
2022-09-17T05:15:17.577Z,3.21
2022-09-17T05:17:44.683Z,7.10
2022-09-17T05:20:12.645Z,7.30
2022-09-17T05:22:50.296Z,8.44
2022-09-17T05:25:19.079Z,8.63
2022-09-17T05:27:46.260Z,6.39
2022-09-17T05:30:13.980Z,7.43
2022-09-17T05:32:41.213Z,6.01
2022-09-17T05:35:09.401Z,7.11
2022-09-17T05:37:37.301Z,8.89
2022-09-17T05:40:07.422Z,8.99
2022-09-17T05:42:34.918Z,5.58
2022-09-17T05:45:01.886Z,8.21
2022-09-17T05:47:28.865Z,6.64
2022-09-17T05:49:55.805Z,6.95
2022-09-17T05:52:22.934Z,7.03
2022-09-17T05:54:49.950Z,7.45
2022-09-17T05:57:17.128Z,5.95
2022-09-17T05:59:44.067Z,4.02
2022-09-17T06:02:14.276Z,7.44
2022-09-17T06:04:41.488Z,8.41
2022-09-17T06:07:09.698Z,9.51
2022-09-17T06:09:41.414Z,8.52
2022-09-17T06:12:08.954Z,5.53
2022-09-17T06:14:35.875Z,8.19
2022-09-17T06:17:02.819Z,8.32
2022-09-17T06:19:29.716Z,9.42
2022-09-17T06:21:56.700Z,7.75
2022-09-17T06:24:23.725Z,9.01
2022-09-17T06:26:52.427Z,8.02
2022-09-17T06:29:19.652Z,9.64
2022-09-17T06:31:49.159Z,10.11
2022-09-17T06:34:16.914Z,9.09
2022-09-17T06:36:44.290Z,10.62
2022-09-17T06:39:12.052Z,10.45
2022-09-17T06:41:39.506Z,10.02
2022-09-17T06:44:06.453Z,9.95
2022-09-17T06:46:33.432Z,8.93
2022-09-17T06:49:00.457Z,10.59
2022-09-17T06:51:27.379Z,9.67
2022-09-17T06:53:54.334Z,9.00
2022-09-17T06:56:21.308Z,11.19
2022-09-17T06:58:48.272Z,11.50
2022-09-17T07:01:15.297Z,9.82
2022-09-17T07:03:46.345Z,9.58
2022-09-17T07:06:13.328Z,5.86
2022-09-17T07:08:40.546Z,11.57
2022-09-17T07:11:08.657Z,10.45
2022-09-17T07:13:36.130Z,12.06
2022-09-17T07:16:05.413Z,9.42
2022-09-17T07:18:32.978Z,12.04
2022-09-17T07:21:02.387Z,11.02
2022-09-17T07:23:32.221Z,12.34
2022-09-17T07:26:04.478Z,10.58
2022-09-17T07:28:31.642Z,12.64
2022-09-17T07:30:58.609Z,11.26
2022-09-17T07:33:28.152Z,12.87
2022-09-17T07:35:57.421Z,13.09
2022-09-17T07:38:25.269Z,12.68
2022-09-17T07:41:06.240Z,13.20
2022-09-17T07:43:35.334Z,13.20
2022-09-17T07:46:04.478Z,13.27
2022-09-17T07:48:32.031Z,11.56
2022-09-17T07:50:58.992Z,13.16
2022-09-17T07:53:26.455Z,13.36
2022-09-17T07:55:55.124Z,13.52
2022-09-17T07:58:24.350Z,13.05
2022-09-17T08:00:51.357Z,12.38
2022-09-17T08:03:18.309Z,13.38
2022-09-17T08:05:45.326Z,10.26
2022-09-17T08:08:12.178Z,12.35
2022-09-17T08:10:39.151Z,12.28
2022-09-17T08:13:06.268Z,7.09
2022-09-17T08:15:33.121Z,10.39
2022-09-17T08:18:00.071Z,11.05
2022-09-17T08:20:27.017Z,11.92
2022-09-17T08:23:01.402Z,11.95
2022-09-17T08:25:28.427Z,10.99
2022-09-17T08:27:57.078Z,12.38
2022-09-17T08:30:24.375Z,13.41
2022-09-17T08:32:51.403Z,12.63
2022-09-17T08:35:18.416Z,12.37
2022-09-17T08:37:46.406Z,11.63
2022-09-17T08:40:22.822Z,12.68
2022-09-17T08:43:00.647Z,10.67
2022-09-17T08:45:28.159Z,11.94
2022-09-17T08:48:03.403Z,11.22
2022-09-17T08:50:34.360Z,13.17
2022-09-17T08:53:40.620Z,11.58
2022-09-17T08:56:16.441Z,13.75
2022-09-17T08:58:49.008Z,13.94
2022-09-17T09:01:43.218Z,14.18
2022-09-17T09:04:19.608Z,14.00
2022-09-17T09:07:23.499Z,12.69
2022-09-17T09:10:04.799Z,12.77
2022-09-17T09:12:35.934Z,11.63
2022-09-17T09:15:20.524Z,11.97
2022-09-17T09:17:51.319Z,12.81
2022-09-17T09:20:36.899Z,13.93
2022-09-17T09:23:19.490Z,12.59
2022-09-17T09:26:04.729Z,12.99
2022-09-17T09:28:59.415Z,13.82
2022-09-17T09:31:44.711Z,13.18
2022-09-17T09:34:14.590Z,13.19
2022-09-17T09:36:41.762Z,12.43
2022-09-17T09:39:22.378Z,12.28
2022-09-17T09:41:59.850Z,13.19
2022-09-17T09:44:27.559Z,12.26
2022-09-17T09:47:12.942Z,13.20
2022-09-17T09:50:02.824Z,13.30
2022-09-17T09:52:43.250Z,11.00
2022-09-17T09:55:31.902Z,13.16
2022-09-17T09:58:20.789Z,13.09
2022-09-17T10:00:48.267Z,12.44
2022-09-17T10:03:23.584Z,13.24
2022-09-17T10:05:55.044Z,13.38
2022-09-17T10:08:22.058Z,9.89
2022-09-17T10:11:04.057Z,13.15
2022-09-17T10:13:36.546Z,13.11
2022-09-17T10:16:23.285Z,13.06
2022-09-17T10:18:52.079Z,3.34
2022-09-17T10:21:30.679Z,12.98
2022-09-17T10:23:58.414Z,12.02
2022-09-17T10:26:29.529Z,10.52
2022-09-17T10:28:59.160Z,12.84
2022-09-17T10:31:26.419Z,12.45
2022-09-17T10:34:02.602Z,13.01
2022-09-17T10:36:40.522Z,12.91
2022-09-17T10:39:44.602Z,12.97
2022-09-17T10:42:11.596Z,12.85
2022-09-17T10:44:39.804Z,11.27
2022-09-17T10:47:19.405Z,12.89
2022-09-17T10:50:08.372Z,12.97
2022-09-17T10:52:47.732Z,12.74
2022-09-17T10:55:30.764Z,13.10
2022-09-17T10:58:07.653Z,13.29
2022-09-17T11:01:00.473Z,13.25
2022-09-17T11:03:36.358Z,13.25
2022-09-17T11:06:21.564Z,13.04
2022-09-17T11:09:27.578Z,13.02
2022-09-17T11:11:57.694Z,13.09
2022-09-17T11:15:02.840Z,13.16
2022-09-17T11:18:06.979Z,13.12
2022-09-17T11:20:52.407Z,12.96
2022-09-17T11:23:42.967Z,12.97
2022-09-17T11:26:21.812Z,13.26
2022-09-17T11:29:06.684Z,13.30
2022-09-17T11:31:52.297Z,13.39
2022-09-17T11:34:36.359Z,13.78
2022-09-17T11:37:13.110Z,14.14
2022-09-17T11:39:49.869Z,11.52
2022-09-17T11:42:28.586Z,13.47
2022-09-17T11:45:03.216Z,14.34
2022-09-17T11:47:35.686Z,14.11
2022-09-17T11:50:02.848Z,14.07
2022-09-17T11:52:40.449Z,13.90
2022-09-17T11:55:34.118Z,13.74
2022-09-17T11:58:08.311Z,10.32
2022-09-17T12:00:47.612Z,8.78
2022-09-17T12:03:26.583Z,11.86
2022-09-17T12:05:57.047Z,10.73
2022-09-17T12:08:34.108Z,13.35
2022-09-17T12:11:19.602Z,13.24
2022-09-17T12:13:49.106Z,12.84
2022-09-17T12:16:33.699Z,11.30
2022-09-17T12:19:16.977Z,11.94
2022-09-17T12:21:48.177Z,13.19
2022-09-17T12:24:26.493Z,13.20
2022-09-17T12:27:23.052Z,13.24
2022-09-17T12:30:07.166Z,13.28
2022-09-17T12:33:12.151Z,13.30
2022-09-17T12:36:05.185Z,13.26
2022-09-17T12:39:08.429Z,12.95
2022-09-17T12:42:08.932Z,13.03
2022-09-17T12:44:56.210Z,11.68
2022-09-17T12:47:51.526Z,13.02
2022-09-17T12:50:36.817Z,13.02
2022-09-17T12:53:28.035Z,13.07
2022-09-17T12:56:18.044Z,13.26
2022-09-17T12:58:55.888Z,13.29
2022-09-17T13:01:34.005Z,13.40
2022-09-17T13:04:13.282Z,13.94
2022-09-17T13:07:14.609Z,12.70
2022-09-17T13:10:06.088Z,14.03
2022-09-17T13:13:10.269Z,14.14
2022-09-17T13:15:43.127Z,14.09
2022-09-17T13:18:27.130Z,11.76
2022-09-17T13:21:13.775Z,10.82
2022-09-17T13:23:46.778Z,13.62
2022-09-17T13:26:17.592Z,11.63
2022-09-17T13:28:47.575Z,14.04
2022-09-17T13:31:40.196Z,11.43
2022-09-17T13:34:19.468Z,14.22
2022-09-17T13:36:53.596Z,14.09
2022-09-17T13:39:47.011Z,14.19
2022-09-17T13:42:18.085Z,14.15
2022-09-17T13:44:50.293Z,8.68
2022-09-17T13:47:30.681Z,10.97
2022-09-17T13:50:09.701Z,13.61
2022-09-17T13:52:39.933Z,13.89
2022-09-17T13:55:08.923Z,13.74
2022-09-17T13:57:50.250Z,12.90
2022-09-17T14:01:15.062Z,13.71
2022-09-17T14:03:42.281Z,13.71
2022-09-17T14:06:09.711Z,13.73
2022-09-17T14:08:45.830Z,13.80
2022-09-17T14:11:25.630Z,13.70
2022-09-17T14:13:59.062Z,13.80
2022-09-17T14:16:29.499Z,13.80
2022-09-17T14:19:22.780Z,13.70
2022-09-17T14:22:00.913Z,13.58
2022-09-17T14:24:39.801Z,13.71
2022-09-17T14:27:30.735Z,13.66
2022-09-17T14:30:09.932Z,13.74
2022-09-17T14:32:42.561Z,13.76
2022-09-17T14:35:36.181Z,13.10
2022-09-17T14:38:10.736Z,11.81
2022-09-17T14:40:46.556Z,12.73
2022-09-17T14:43:38.774Z,5.36
2022-09-17T14:46:10.214Z,13.58
2022-09-17T14:48:37.555Z,10.80
2022-09-17T14:51:20.104Z,13.61
2022-09-17T14:53:49.455Z,9.02
2022-09-17T14:56:23.677Z,13.61
2022-09-17T14:58:53.963Z,12.30
2022-09-17T15:01:25.525Z,12.17
2022-09-17T15:04:31.074Z,13.29
2022-09-17T15:07:09.869Z,11.32
2022-09-17T15:09:36.993Z,12.29
2022-09-17T15:12:06.683Z,13.39
2022-09-17T15:14:40.137Z,12.44
2022-09-17T15:17:09.339Z,12.36
2022-09-17T15:19:43.121Z,13.60
2022-09-17T15:22:29.928Z,11.05
2022-09-17T15:25:01.464Z,10.96
2022-09-17T15:27:34.213Z,13.41
2022-09-17T15:30:17.236Z,13.28
2022-09-17T15:32:51.535Z,13.58
2022-09-17T15:35:26.175Z,13.18
2022-09-17T15:38:21.756Z,13.43
2022-09-17T15:40:46.544Z,12.45
2022-09-17T15:43:28.710Z,13.32
2022-09-17T15:45:58.493Z,12.61
2022-09-17T15:48:37.844Z,12.89
2022-09-17T15:51:15.441Z,11.03
2022-09-17T15:53:55.759Z,12.99
2022-09-17T15:56:34.562Z,12.15
2022-09-17T15:59:23.188Z,13.31
2022-09-17T16:01:54.675Z,13.22
2022-09-17T16:04:23.193Z,13.24
2022-09-17T16:06:55.694Z,10.88
2022-09-17T16:09:41.675Z,11.97
2022-09-17T16:12:12.965Z,11.84
2022-09-17T16:14:44.412Z,13.06
2022-09-17T16:17:33.263Z,13.34
2022-09-17T16:20:06.482Z,9.02
2022-09-17T16:22:33.958Z,12.40
2022-09-17T16:25:00.858Z,5.61
2022-09-17T16:27:32.749Z,11.98
2022-09-17T16:30:06.072Z,10.88
2022-09-17T16:32:33.013Z,11.40
2022-09-17T16:35:00.171Z,11.87
2022-09-17T16:37:27.058Z,12.40
2022-09-17T16:39:54.227Z,11.13
2022-09-17T16:42:21.190Z,9.84
2022-09-17T16:44:48.151Z,11.57
2022-09-17T16:47:15.098Z,10.11
2022-09-17T16:49:42.071Z,12.06
2022-09-17T16:52:09.013Z,5.74
2022-09-17T16:54:35.888Z,11.51
2022-09-17T16:57:02.876Z,10.22
2022-09-17T16:59:29.801Z,10.65
2022-09-17T17:01:56.752Z,10.68
2022-09-17T17:04:24.785Z,11.62
2022-09-17T17:06:52.115Z,11.31
2022-09-17T17:09:19.051Z,9.15
2022-09-17T17:11:45.997Z,9.17
2022-09-17T17:14:14.918Z,9.57
2022-09-17T17:16:43.864Z,2.30
2022-09-17T17:19:11.286Z,9.60
2022-09-17T17:21:38.467Z,9.70
2022-09-17T17:24:07.026Z,5.03
2022-09-17T17:26:34.940Z,10.58
2022-09-17T17:29:03.274Z,10.71
2022-09-17T17:31:30.398Z,1.26
2022-09-17T17:33:58.523Z,9.51
2022-09-17T17:36:25.734Z,10.43
2022-09-17T17:38:57.296Z,8.94
2022-09-17T17:41:26.733Z,10.70
2022-09-17T17:43:54.624Z,4.62
2022-09-17T17:46:23.799Z,10.67
2022-09-17T17:48:51.571Z,4.93
2022-09-17T17:51:19.642Z,10.52
2022-09-17T17:53:47.031Z,10.44
2022-09-17T17:56:14.156Z,5.59
2022-09-17T17:58:41.621Z,10.19
2022-09-17T18:01:21.286Z,10.37
2022-09-17T18:03:48.500Z,10.39
2022-09-17T18:06:15.887Z,10.36
2022-09-17T18:08:44.502Z,7.67
2022-09-17T18:11:12.587Z,9.28
2022-09-17T18:13:40.435Z,9.90
2022-09-17T18:16:09.398Z,10.22
2022-09-17T18:18:44.850Z,8.11
2022-09-17T18:21:16.238Z,10.23
2022-09-17T18:23:43.895Z,7.16
2022-09-17T18:26:16.710Z,10.15
2022-09-17T18:28:45.042Z,9.40
2022-09-17T18:31:33.523Z,10.10
2022-09-17T18:34:08.541Z,10.09
2022-09-17T18:36:37.277Z,9.71
2022-09-17T18:39:33.227Z,8.94
2022-09-17T18:41:54.022Z,9.68
2022-09-17T18:44:22.129Z,10.06
2022-09-17T18:46:50.404Z,9.59
2022-09-17T18:49:17.810Z,10.05
2022-09-17T18:51:44.763Z,9.70
2022-09-17T18:54:13.037Z,7.17
2022-09-17T18:56:41.994Z,10.04
2022-09-17T18:59:10.222Z,9.74
2022-09-17T19:01:37.350Z,7.46
2022-09-17T19:04:05.047Z,10.02
2022-09-17T19:06:32.552Z,9.23
2022-09-17T19:09:04.978Z,9.93
2022-09-17T19:11:32.346Z,7.99
2022-09-17T19:13:59.478Z,8.28
2022-09-17T19:16:26.525Z,9.97
2022-09-17T19:18:53.983Z,9.01
2022-09-17T19:21:22.068Z,8.14
2022-09-17T19:23:51.343Z,9.81
2022-09-17T19:26:21.325Z,9.74
2022-09-17T19:28:48.378Z,9.09
2022-09-17T19:31:18.188Z,9.70
2022-09-17T19:33:45.963Z,9.67
2022-09-17T19:36:15.326Z,9.67
2022-09-17T19:38:42.868Z,9.62
2022-09-17T19:41:15.187Z,9.52
2022-09-17T19:43:42.572Z,9.51
2022-09-17T19:46:13.737Z,9.41
2022-09-17T19:48:51.257Z,9.44
2022-09-17T19:51:18.764Z,8.36
2022-09-17T19:53:45.977Z,8.43
2022-09-17T19:56:15.320Z,9.39
2022-09-17T19:58:42.991Z,7.87
2022-09-17T20:01:11.148Z,9.37
2022-09-17T20:03:43.243Z,9.33
2022-09-17T20:06:13.393Z,9.38
2022-09-17T20:08:54.810Z,9.38
2022-09-17T20:11:24.242Z,8.36
2022-09-17T20:13:57.221Z,8.80
2022-09-17T20:16:24.759Z,9.45
2022-09-17T20:18:51.962Z,8.91
2022-09-17T20:21:30.036Z,9.51
2022-09-17T20:23:58.027Z,9.51
2022-09-17T20:26:26.265Z,5.71
2022-09-17T20:28:54.292Z,7.07
2022-09-17T20:31:27.519Z,9.29
2022-09-17T20:33:59.873Z,7.65
2022-09-17T20:36:33.605Z,8.21
2022-09-17T20:39:21.367Z,6.16
2022-09-17T20:41:47.758Z,8.41
2022-09-17T20:44:14.772Z,6.55
2022-09-17T20:46:41.908Z,7.38
2022-09-17T20:49:09.288Z,9.66
2022-09-17T20:51:37.413Z,9.63
2022-09-17T20:54:05.037Z,8.06
2022-09-17T20:56:34.136Z,8.51
2022-09-17T20:59:25.212Z,9.25
2022-09-17T21:01:53.929Z,9.10
2022-09-17T21:04:21.534Z,9.63
2022-09-17T21:06:52.824Z,7.66
2022-09-17T21:09:20.946Z,7.28
2022-09-17T21:11:49.273Z,9.59
2022-09-17T21:14:21.602Z,9.27
2022-09-17T21:16:49.419Z,8.67
2022-09-17T21:19:16.867Z,4.15
2022-09-17T21:21:44.478Z,7.33
2022-09-17T21:24:11.628Z,5.37
2022-09-17T21:26:38.607Z,9.59
2022-09-17T21:29:05.601Z,7.93
2022-09-17T21:31:34.635Z,9.58
2022-09-17T21:34:04.882Z,1.27
2022-09-17T21:36:33.993Z,9.58
2022-09-17T21:39:04.214Z,9.59
2022-09-17T21:41:31.694Z,8.39
2022-09-17T21:43:58.754Z,7.08
2022-09-17T21:46:32.751Z,9.63
2022-09-17T21:49:02.503Z,9.62
2022-09-17T21:51:34.350Z,9.60
2022-09-17T21:54:03.263Z,9.55
2022-09-17T21:56:31.176Z,9.22
2022-09-17T21:59:00.531Z,8.42
2022-09-17T22:01:32.059Z,9.66
2022-09-17T22:04:00.532Z,9.70
2022-09-17T22:06:30.018Z,9.19
2022-09-17T22:08:58.626Z,7.92
2022-09-17T22:11:32.228Z,9.63
2022-09-17T22:14:09.519Z,6.56
2022-09-17T22:16:39.734Z,6.91
2022-09-17T22:19:08.162Z,9.62
2022-09-17T22:21:37.791Z,9.62
2022-09-17T22:24:06.294Z,6.98
2022-09-17T22:26:36.454Z,9.68
2022-09-17T22:29:12.241Z,8.47
2022-09-17T22:31:39.966Z,4.74
2022-09-17T22:34:09.397Z,6.14
2022-09-17T22:36:36.763Z,9.12
2022-09-17T22:39:04.690Z,7.85
2022-09-17T22:41:34.121Z,9.43
2022-09-17T22:44:04.272Z,9.44
2022-09-17T22:46:33.721Z,9.43
2022-09-17T22:49:01.146Z,7.74
2022-09-17T22:51:29.890Z,9.41
2022-09-17T22:53:58.655Z,9.37
2022-09-17T22:56:27.600Z,9.37
2022-09-17T22:58:56.709Z,9.01
2022-09-17T23:01:29.942Z,9.35
2022-09-17T23:03:58.414Z,7.33
2022-09-17T23:06:30.910Z,8.99
2022-09-17T23:08:58.861Z,9.32
2022-09-17T23:11:34.269Z,7.66
2022-09-17T23:14:04.813Z,7.92
2022-09-17T23:16:37.122Z,7.71
2022-09-17T23:19:04.320Z,8.98
2022-09-17T23:21:31.449Z,5.74
2022-09-17T23:23:58.863Z,9.30
2022-09-17T23:26:27.339Z,8.87
2022-09-17T23:28:54.304Z,7.84
2022-09-17T23:31:28.796Z,9.25
2022-09-17T23:33:57.158Z,8.86
2022-09-17T23:36:27.364Z,9.21
2022-09-17T23:38:55.667Z,9.21
2022-09-17T23:41:28.598Z,9.26
2022-09-17T23:43:57.683Z,8.37
2022-09-17T23:46:26.457Z,8.93
2022-09-17T23:48:56.153Z,9.20
2022-09-17T23:51:27.716Z,9.17
2022-09-17T23:53:55.386Z,9.20
2022-09-17T23:56:28.258Z,7.92
2022-09-17T23:58:57.135Z,7.23
